Time;durP1;ratioP1;P1;durP2;ratioP2;P2;SDS_P1;SDS_P2;PMS_P1;PMS_P2;Temp;Humidity;BMP_temperature;BMP_pressure;BME280_temperature;BME280_humidity;BME280_pressure;Samples;Min_cycle;Max_cycle;Signal;HPM_P1;HPM_P2
2023/08/12 00:00:44;;;;;;;0.57;0.40;;;18.50;99.90;;;;;;5017269;28;20056;-75
2023/08/12 00:03:11;;;;;;;1.00;0.40;;;18.40;99.90;;;;;;5022113;28;20057;-75
2023/08/12 00:05:39;;;;;;;0.57;0.43;;;18.40;99.90;;;;;;5021557;28;20045;-74
2023/08/12 00:08:06;;;;;;;0.47;0.30;;;18.40;99.90;;;;;;5019037;28;20045;-75
2023/08/12 00:10:33;;;;;;;1.60;0.80;;;18.40;99.90;;;;;;5019958;28;20064;-75
2023/08/12 00:13:00;;;;;;;1.10;0.55;;;18.30;99.90;;;;;;5001931;28;20124;-75
2023/08/12 00:15:26;;;;;;;0.43;0.35;;;18.40;99.90;;;;;;4986539;28;20058;-75
2023/08/12 00:17:53;;;;;;;0.95;0.50;;;18.40;99.90;;;;;;5021200;28;20501;-75
2023/08/12 00:20:20;;;;;;;0.70;0.50;;;18.40;99.90;;;;;;5021298;28;20049;-75
2023/08/12 00:22:47;;;;;;;0.80;0.45;;;18.40;99.90;;;;;;5023653;28;20890;-74
2023/08/12 00:25:14;;;;;;;0.85;0.40;;;18.40;99.90;;;;;;5020254;28;20823;-75
2023/08/12 00:27:41;;;;;;;0.60;0.60;;;18.30;99.90;;;;;;5021366;28;20056;-75
2023/08/12 00:30:08;;;;;;;0.82;0.60;;;18.30;99.90;;;;;;5021301;28;20111;-74
2023/08/12 00:32:35;;;;;;;1.45;0.50;;;18.30;99.90;;;;;;5022900;28;20042;-73
2023/08/12 00:35:02;;;;;;;0.95;0.60;;;18.30;99.90;;;;;;5022128;28;20052;-74
2023/08/12 00:37:29;;;;;;;0.57;0.43;;;18.20;99.90;;;;;;5005401;28;20406;-74
2023/08/12 00:39:56;;;;;;;0.82;0.50;;;18.20;99.90;;;;;;5019906;28;20057;-74
2023/08/12 00:42:23;;;;;;;0.38;0.30;;;18.20;99.90;;;;;;5005571;28;20476;-73
2023/08/12 00:44:49;;;;;;;0.70;0.30;;;18.20;99.90;;;;;;5004948;28;20053;-74
2023/08/12 00:47:16;;;;;;;0.68;0.55;;;18.20;99.90;;;;;;5004747;28;20049;-74
2023/08/12 00:49:46;;;;;;;0.75;0.38;;;18.20;99.90;;;;;;4988533;28;20054;-74
2023/08/12 00:52:13;;;;;;;1.20;0.73;;;18.20;99.90;;;;;;5021797;28;20045;-74
2023/08/12 00:54:40;;;;;;;1.85;0.82;;;18.20;99.90;;;;;;5003760;28;20057;-73
2023/08/12 00:57:07;;;;;;;0.40;0.40;;;18.20;97.10;;;;;;5020891;28;20147;-74
2023/08/12 00:59:35;;;;;;;0.55;0.50;;;18.20;30.90;;;;;;5005007;28;20566;-74
2023/08/12 01:02:02;;;;;;;0.38;0.38;;;18.20;1.00;;;;;;5005690;28;20456;-73
2023/08/12 01:04:28;;;;;;;1.25;0.60;;;18.10;1.00;;;;;;5004720;28;20555;-74
2023/08/12 01:06:55;;;;;;;0.80;0.50;;;18.10;20.20;;;;;;5008514;28;20054;-74
2023/08/12 01:09:22;;;;;;;0.68;0.50;;;18.10;46.70;;;;;;5026356;28;20087;-74
2023/08/12 01:12:12;;;;;;;0.88;0.40;;;18.00;86.00;;;;;;5007231;28;20057;-74
2023/08/12 01:14:51;;;;;;;2.38;0.70;;;18.00;99.90;;;;;;5009550;28;20053;-74
2023/08/12 01:17:17;;;;;;;1.00;0.70;;;18.00;99.90;;;;;;5024644;28;20045;-74
2023/08/12 01:19:44;;;;;;;1.30;0.70;;;17.90;99.90;;;;;;5024156;28;20054;-74
2023/08/12 01:22:12;;;;;;;0.95;0.73;;;17.90;99.90;;;;;;5024617;28;20053;-74
2023/08/12 01:24:43;;;;;;;2.85;0.55;;;17.80;99.90;;;;;;4991110;28;20057;-73
2023/08/12 01:27:10;;;;;;;0.98;0.60;;;17.80;99.90;;;;;;5008389;28;20053;-74
2023/08/12 01:29:42;;;;;;;0.68;0.50;;;17.80;99.90;;;;;;5008907;28;20421;-73
2023/08/12 01:32:25;;;;;;;0.70;0.52;;;17.80;99.90;;;;;;5001151;28;20135;-74
2023/08/12 01:35:20;;;;;;;0.90;0.60;;;17.80;99.90;;;;;;5005936;28;20056;-74
2023/08/12 01:37:49;;;;;;;1.50;0.77;;;17.80;1.00;;;;;;5023679;28;20049;-73
2023/08/12 01:40:16;;;;;;;0.75;0.60;;;17.70;1.00;;;;;;5022767;28;20077;-76
2023/08/12 01:42:43;;;;;;;1.02;0.50;;;17.70;1.00;;;;;;5015381;28;20072;-75
2023/08/12 01:45:10;;;;;;;1.13;0.60;;;17.70;1.00;;;;;;5009348;28;20107;-74
2023/08/12 01:47:37;;;;;;;1.15;0.65;;;17.70;1.00;;;;;;5025572;28;20052;-74
2023/08/12 01:50:04;;;;;;;0.32;0.30;;;17.60;1.00;;;;;;5023130;28;20057;-73
2023/08/12 01:52:31;;;;;;;0.77;0.43;;;17.60;1.00;;;;;;5021969;28;20049;-73
2023/08/12 01:54:58;;;;;;;0.60;0.40;;;17.60;96.70;;;;;;5005159;28;20057;-74
2023/08/12 01:57:25;;;;;;;1.08;0.50;;;17.60;99.90;;;;;;5009545;28;20037;-74
2023/08/12 01:59:52;;;;;;;0.82;0.63;;;17.60;99.90;;;;;;5026792;28;20045;-73
2023/08/12 02:02:18;;;;;;;0.65;0.60;;;17.60;99.90;;;;;;5009151;28;20210;-73
2023/08/12 02:04:45;;;;;;;1.10;0.60;;;17.50;99.90;;;;;;4991812;28;20061;-74
2023/08/12 02:07:12;;;;;;;1.02;0.60;;;17.50;99.90;;;;;;5009172;28;20138;-74
2023/08/12 02:09:39;;;;;;;0.50;0.50;;;17.50;99.90;;;;;;5023496;28;20629;-73
2023/08/12 02:12:06;;;;;;;0.68;0.50;;;17.40;1.00;;;;;;5009249;28;20042;-73
2023/08/12 02:14:33;;;;;;;1.90;0.68;;;17.30;99.90;;;;;;5025416;28;20045;-74
2023/08/12 02:17:00;;;;;;;0.75;0.70;;;17.30;99.90;;;;;;5025244;28;20107;-73
2023/08/12 02:19:27;;;;;;;0.82;0.50;;;17.20;99.90;;;;;;4992346;28;20504;-73
2023/08/12 02:21:54;;;;;;;0.90;0.57;;;17.20;99.90;;;;;;5025435;28;20057;-74
2023/08/12 02:24:21;;;;;;;0.98;0.68;;;17.10;1.00;;;;;;5025274;28;20053;-73
2023/08/12 02:26:48;;;;;;;1.00;0.52;;;17.10;93.70;;;;;;5023954;28;20056;-73
2023/08/12 02:29:14;;;;;;;0.88;0.60;;;17.00;99.90;;;;;;5027022;28;20104;-73
2023/08/12 02:31:41;;;;;;;0.82;0.50;;;16.90;99.90;;;;;;5024306;28;20100;-73
2023/08/12 02:34:08;;;;;;;2.13;0.80;;;16.90;99.90;;;;;;5008638;28;20057;-73
2023/08/12 02:36:35;;;;;;;0.52;0.50;;;16.80;99.90;;;;;;5024517;28;20049;-73
2023/08/12 02:39:02;;;;;;;1.20;0.70;;;16.80;1.00;;;;;;5025024;28;20057;-73
2023/08/12 02:41:28;;;;;;;0.77;0.60;;;16.70;1.00;;;;;;5003447;28;20081;-73
2023/08/12 02:43:55;;;;;;;0.73;0.60;;;16.70;29.40;;;;;;4996384;28;20088;-74
2023/08/12 02:46:22;;;;;;;0.63;0.40;;;16.60;99.90;;;;;;5007896;28;20053;-73
2023/08/12 02:48:49;;;;;;;1.35;0.75;;;16.60;99.90;;;;;;5025100;28;20053;-73
2023/08/12 02:51:15;;;;;;;0.68;0.68;;;16.50;99.90;;;;;;4980673;28;20104;-74
2023/08/12 02:53:42;;;;;;;1.23;0.60;;;16.50;99.90;;;;;;5008821;28;20108;-73
2023/08/12 02:56:09;;;;;;;0.80;0.60;;;16.50;1.00;;;;;;5003856;28;20049;-73
2023/08/12 02:58:37;;;;;;;0.60;0.50;;;16.40;1.00;;;;;;4982268;28;20586;-73
2023/08/12 03:01:04;;;;;;;0.70;0.60;;;16.40;1.50;;;;;;5017734;28;20709;-73
2023/08/12 03:03:31;;;;;;;2.10;1.05;;;16.30;99.90;;;;;;5024676;28;20053;-74
2023/08/12 03:05:58;;;;;;;1.15;0.63;;;16.30;99.90;;;;;;5007535;28;20497;-74
2023/08/12 03:08:24;;;;;;;0.85;0.60;;;16.30;99.90;;;;;;5024567;28;20049;-73
2023/08/12 03:11:01;;;;;;;1.05;0.80;;;16.20;99.90;;;;;;5023004;28;20045;-73
2023/08/12 03:13:28;;;;;;;1.08;0.70;;;16.20;99.90;;;;;;5024501;28;20080;-73
2023/08/12 03:15:55;;;;;;;1.35;0.75;;;16.20;99.90;;;;;;4988040;28;20053;-74
2023/08/12 03:18:22;;;;;;;1.15;0.80;;;16.20;99.90;;;;;;5022888;28;20123;-73
2023/08/12 03:20:49;;;;;;;0.63;0.60;;;16.10;99.90;;;;;;5007032;28;20461;-73
2023/08/12 03:23:16;;;;;;;0.98;0.88;;;16.10;99.90;;;;;;4991975;28;20526;-73
2023/08/12 03:25:43;;;;;;;1.10;0.65;;;16.10;1.00;;;;;;4990580;28;20637;-73
2023/08/12 03:28:10;;;;;;;1.40;0.80;;;16.00;1.00;;;;;;4987924;28;20045;-73
2023/08/12 03:30:36;;;;;;;1.40;1.10;;;16.00;1.00;;;;;;4988042;28;20049;-73
2023/08/12 03:33:03;;;;;;;1.75;0.93;;;16.00;1.00;;;;;;5005951;28;20053;-73
2023/08/12 03:35:31;;;;;;;3.53;1.30;;;16.00;1.00;;;;;;5024603;28;20561;-73
2023/08/12 03:37:57;;;;;;;0.65;0.60;;;16.00;1.00;;;;;;5000941;28;20052;-73
2023/08/12 03:40:27;;;;;;;1.80;1.20;;;15.90;56.30;;;;;;5012890;28;20041;-73
2023/08/12 03:42:53;;;;;;;1.58;1.00;;;16.00;64.10;;;;;;5007602;28;20046;-73
2023/08/12 03:45:20;;;;;;;1.38;1.00;;;16.00;73.10;;;;;;5023410;28;20060;-74
2023/08/12 03:47:47;;;;;;;1.25;0.90;;;16.10;62.30;;;;;;5007679;28;20054;-74
2023/08/12 03:50:14;;;;;;;0.93;0.80;;;16.10;27.50;;;;;;5024577;28;20087;-74
2023/08/12 03:52:40;;;;;;;1.25;0.80;;;16.20;34.00;;;;;;5006687;28;20049;-74
2023/08/12 03:55:08;;;;;;;1.27;0.90;;;16.30;1.00;;;;;;5023422;28;20053;-74
2023/08/12 03:57:34;;;;;;;1.83;1.30;;;16.30;1.00;;;;;;5024089;28;20050;-74
2023/08/12 04:00:02;;;;;;;1.48;1.10;;;16.30;1.00;;;;;;5024893;28;20053;-74
2023/08/12 04:02:28;;;;;;;2.00;1.40;;;16.30;1.00;;;;;;5007702;28;20721;-74
2023/08/12 04:04:55;;;;;;;2.35;1.27;;;16.30;1.00;;;;;;5006416;28;20156;-74
2023/08/12 04:07:22;;;;;;;1.30;1.20;;;16.40;1.00;;;;;;5023343;28;20107;-74
2023/08/12 04:09:49;;;;;;;2.60;1.33;;;16.40;1.00;;;;;;5021999;28;20049;-74
2023/08/12 04:12:16;;;;;;;1.83;1.50;;;16.40;1.00;;;;;;4986885;28;20567;-74
2023/08/12 04:14:42;;;;;;;1.50;1.30;;;16.40;1.00;;;;;;5023151;28;20050;-74
2023/08/12 04:17:09;;;;;;;1.90;1.40;;;16.40;1.00;;;;;;5007046;28;20069;-74
2023/08/12 04:19:37;;;;;;;2.25;1.40;;;16.50;99.90;;;;;;5004927;28;20057;-73
2023/08/12 04:22:03;;;;;;;2.67;1.50;;;16.50;99.90;;;;;;5023680;28;20052;-73
2023/08/12 04:24:30;;;;;;;2.00;1.30;;;16.60;99.90;;;;;;4989240;28;20045;-73
2023/08/12 04:26:57;;;;;;;4.15;1.67;;;16.60;99.90;;;;;;5001825;28;20050;-73
2023/08/12 04:29:24;;;;;;;2.03;1.60;;;16.50;99.90;;;;;;5003757;28;20050;-74
2023/08/12 04:31:52;;;;;;;2.03;1.33;;;16.50;99.90;;;;;;5015274;28;20416;-74
2023/08/12 04:34:19;;;;;;;3.67;1.77;;;16.50;99.90;;;;;;5022806;28;20049;-73
2023/08/12 04:36:46;;;;;;;3.15;1.52;;;16.50;99.90;;;;;;5022534;28;20049;-73
2023/08/12 04:39:12;;;;;;;2.22;1.70;;;16.50;99.90;;;;;;5007145;28;20111;-73
2023/08/12 04:41:39;;;;;;;2.35;1.52;;;16.40;99.90;;;;;;4993132;28;20115;-74
2023/08/12 04:44:06;;;;;;;1.48;1.33;;;16.40;99.90;;;;;;5010966;28;20084;-74
2023/08/12 04:46:33;;;;;;;2.95;1.92;;;16.40;99.90;;;;;;4993696;28;20057;-73
2023/08/12 04:49:00;;;;;;;2.25;1.52;;;16.50;99.90;;;;;;4994609;28;20424;-76
2023/08/12 04:51:26;;;;;;;2.10;1.45;;;16.50;99.90;;;;;;5009845;28;20057;-73
2023/08/12 04:53:53;;;;;;;1.88;1.63;;;16.60;99.90;;;;;;5011142;28;20622;-73
2023/08/12 04:56:20;;;;;;;2.05;1.45;;;16.60;99.90;;;;;;5025186;28;20065;-73
2023/08/12 04:58:47;;;;;;;2.47;1.67;;;16.60;99.90;;;;;;5027499;28;20053;-73
2023/08/12 05:01:14;;;;;;;2.05;1.55;;;16.70;99.90;;;;;;5009543;28;20107;-74
2023/08/12 05:03:40;;;;;;;1.80;1.23;;;16.70;99.90;;;;;;5023948;28;20111;-73
2023/08/12 05:06:07;;;;;;;2.50;1.50;;;16.70;99.90;;;;;;5024609;28;20497;-73
2023/08/12 05:08:34;;;;;;;1.80;1.40;;;16.80;99.90;;;;;;5024262;28;20052;-73
2023/08/12 05:11:01;;;;;;;1.33;1.10;;;16.80;99.90;;;;;;4998044;28;20049;-73
2023/08/12 05:13:29;;;;;;;1.73;1.23;;;16.80;99.90;;;;;;5024966;28;20049;-73
2023/08/12 05:15:56;;;;;;;1.35;0.93;;;16.80;99.90;;;;;;5024627;28;20109;-73
2023/08/12 05:18:23;;;;;;;2.72;1.50;;;16.80;99.90;;;;;;5026132;28;20061;-73
2023/08/12 05:20:51;;;;;;;2.13;1.10;;;16.80;99.90;;;;;;5023896;28;20061;-73
2023/08/12 05:23:19;;;;;;;2.85;1.40;;;16.80;99.90;;;;;;5024762;28;20060;-73
2023/08/12 05:25:45;;;;;;;1.67;0.98;;;16.80;99.90;;;;;;5023292;28;20050;-74
2023/08/12 05:28:12;;;;;;;1.90;1.00;;;16.70;99.90;;;;;;5008813;28;20053;-74
2023/08/12 05:30:39;;;;;;;0.90;0.80;;;16.70;99.90;;;;;;5025675;28;20114;-74
2023/08/12 05:33:06;;;;;;;1.63;1.15;;;16.70;99.90;;;;;;5025604;28;20107;-73
2023/08/12 05:35:36;;;;;;;1.50;0.90;;;16.70;99.90;;;;;;5007545;28;20411;-73
2023/08/12 05:38:03;;;;;;;1.00;0.70;;;16.70;99.90;;;;;;4991414;28;20512;-73
2023/08/12 05:40:30;;;;;;;1.13;0.73;;;16.70;99.90;;;;;;5021482;28;20095;-73
2023/08/12 05:42:56;;;;;;;0.70;0.63;;;16.70;99.90;;;;;;5007855;28;20049;-73
2023/08/12 05:45:23;;;;;;;1.58;0.73;;;16.70;99.90;;;;;;5023156;28;20397;-74
2023/08/12 05:47:50;;;;;;;0.98;0.60;;;16.70;99.90;;;;;;5023312;28;20132;-74
2023/08/12 05:50:17;;;;;;;1.13;0.73;;;16.70;99.90;;;;;;5022896;28;20045;-73
2023/08/12 05:52:43;;;;;;;3.63;0.95;;;16.80;99.90;;;;;;5024067;28;20064;-73
2023/08/12 05:55:11;;;;;;;1.60;0.93;;;16.70;99.90;;;;;;5006205;28;20042;-73
2023/08/12 05:57:37;;;;;;;1.38;0.90;;;16.80;99.90;;;;;;5009529;28;20051;-73
2023/08/12 06:00:05;;;;;;;1.30;0.65;;;16.80;99.90;;;;;;5009432;28;20053;-76
2023/08/12 06:02:32;;;;;;;0.75;0.43;;;16.80;96.40;;;;;;5010365;28;20064;-74
2023/08/12 06:04:59;;;;;;;1.55;0.68;;;16.90;96.30;;;;;;5010190;28;20052;-73
2023/08/12 06:07:25;;;;;;;3.10;0.57;;;16.90;1.00;;;;;;4994740;28;20598;-73
2023/08/12 06:09:52;;;;;;;1.10;0.82;;;16.90;10.90;;;;;;5021491;28;20137;-73
2023/08/12 06:12:19;;;;;;;1.15;0.80;;;17.00;32.30;;;;;;5024537;28;20045;-74
2023/08/12 06:14:46;;;;;;;1.23;0.70;;;17.10;11.30;;;;;;5010012;28;20138;-73
2023/08/12 06:17:12;;;;;;;2.58;1.00;;;17.20;1.00;;;;;;5010771;28;20054;-74
2023/08/12 06:19:40;;;;;;;2.28;0.90;;;17.20;1.00;;;;;;4993606;28;20080;-73
2023/08/12 06:22:06;;;;;;;1.67;0.98;;;17.20;1.00;;;;;;5026938;28;20049;-74
2023/08/12 06:24:33;;;;;;;3.33;1.73;;;17.30;1.00;;;;;;5006052;28;20197;-74
2023/08/12 06:27:00;;;;;;;1.83;1.10;;;17.20;1.00;;;;;;5006740;28;20064;-74
2023/08/12 06:29:27;;;;;;;2.78;0.90;;;17.20;1.00;;;;;;5022873;28;20045;-74
2023/08/12 06:31:54;;;;;;;3.05;1.13;;;17.20;99.90;;;;;;5027077;28;20056;-74
2023/08/12 06:34:21;;;;;;;2.17;1.10;;;17.20;1.00;;;;;;4993763;28;20115;-74
2023/08/12 06:36:47;;;;;;;3.45;1.58;;;17.30;1.00;;;;;;5020496;28;20042;-74
2023/08/12 06:39:14;;;;;;;2.25;1.30;;;17.30;1.00;;;;;;5020412;28;20056;-74
2023/08/12 06:41:41;;;;;;;3.58;0.90;;;17.30;1.00;;;;;;5008172;28;20492;-74
2023/08/12 06:44:08;;;;;;;2.83;1.15;;;17.30;5.70;;;;;;5024629;28;20129;-74
2023/08/12 06:46:34;;;;;;;2.13;1.00;;;17.40;12.60;;;;;;5022223;28;20046;-74
2023/08/12 06:49:01;;;;;;;2.22;0.77;;;17.40;31.40;;;;;;5008747;28;20496;-74
2023/08/12 06:51:28;;;;;;;2.88;1.25;;;17.40;23.40;;;;;;5022258;28;20045;-74
2023/08/12 06:53:55;;;;;;;3.40;1.48;;;17.50;1.00;;;;;;5025048;28;20112;-74
2023/08/12 06:56:21;;;;;;;3.35;1.42;;;17.50;1.00;;;;;;5023820;28;20049;-74
2023/08/12 06:58:48;;;;;;;2.33;1.10;;;17.60;1.00;;;;;;5027544;28;20053;-74
2023/08/12 07:01:15;;;;;;;1.98;0.98;;;17.60;1.00;;;;;;5009362;28;20114;-74
2023/08/12 07:03:42;;;;;;;2.67;1.40;;;17.70;1.00;;;;;;5026052;28;20050;-74
2023/08/12 07:06:09;;;;;;;2.90;1.20;;;17.70;99.90;;;;;;5026543;28;20060;-74
2023/08/12 07:08:36;;;;;;;2.97;1.20;;;17.70;99.90;;;;;;5024583;28;20537;-74
2023/08/12 07:11:02;;;;;;;2.40;1.10;;;17.70;99.90;;;;;;5022460;28;20057;-74
2023/08/12 07:13:29;;;;;;;2.03;1.20;;;17.70;99.90;;;;;;5023757;28;20045;-74
2023/08/12 07:15:56;;;;;;;2.15;0.95;;;17.70;99.90;;;;;;5008310;28;20295;-74
2023/08/12 07:18:23;;;;;;;3.85;1.27;;;17.70;70.40;;;;;;5026836;28;20084;-74
2023/08/12 07:20:50;;;;;;;3.53;1.48;;;17.80;1.00;;;;;;5024956;28;20053;-74
2023/08/12 07:23:17;;;;;;;2.35;1.00;;;17.80;1.00;;;;;;5024946;28;20077;-74
2023/08/12 07:25:46;;;;;;;1.90;1.30;;;17.90;99.90;;;;;;5023782;28;20045;-74
2023/08/12 07:28:13;;;;;;;2.42;1.20;;;18.00;99.90;;;;;;5022765;28;20056;-74
2023/08/12 07:30:40;;;;;;;2.17;0.95;;;18.10;99.90;;;;;;5019629;28;20056;-74
2023/08/12 07:33:06;;;;;;;2.17;1.27;;;18.20;1.00;;;;;;5024834;28;20046;-74
2023/08/12 07:35:33;;;;;;;2.25;1.10;;;18.10;99.90;;;;;;5005632;28;20104;-74
2023/08/12 07:38:00;;;;;;;3.25;1.33;;;18.20;99.90;;;;;;4990157;28;20111;-74
2023/08/12 07:40:27;;;;;;;3.35;1.55;;;18.30;1.00;;;;;;5022420;28;20081;-74
2023/08/12 07:42:54;;;;;;;3.65;1.70;;;18.30;1.00;;;;;;5006773;28;20111;-74
2023/08/12 07:45:21;;;;;;;3.88;1.67;;;18.40;99.90;;;;;;5025300;28;20129;-74
2023/08/12 07:47:49;;;;;;;5.10;1.50;;;18.40;99.90;;;;;;5023881;28;20149;-74
2023/08/12 07:50:16;;;;;;;3.25;1.42;;;18.50;99.90;;;;;;5038671;28;20046;-74
2023/08/12 07:52:43;;;;;;;2.75;1.30;;;18.60;99.90;;;;;;5024184;28;20049;-74
2023/08/12 07:55:10;;;;;;;3.17;1.40;;;18.80;1.00;;;;;;5005119;28;20057;-74
2023/08/12 07:57:37;;;;;;;3.60;1.95;;;18.90;99.90;;;;;;5006676;28;20115;-74
2023/08/12 08:00:05;;;;;;;2.78;1.42;;;19.10;99.90;;;;;;5028166;28;20053;-74
2023/08/12 08:02:31;;;;;;;2.20;1.00;;;19.20;99.90;;;;;;4999445;28;20134;-74
2023/08/12 08:04:58;;;;;;;3.05;1.13;;;19.30;54.80;;;;;;5017569;28;20107;-75
2023/08/12 08:07:25;;;;;;;3.13;1.50;;;19.40;1.00;;;;;;5005961;28;20045;-74
2023/08/12 08:09:52;;;;;;;4.32;1.30;;;19.40;99.90;;;;;;5020217;28;20711;-74
2023/08/12 08:12:19;;;;;;;3.35;1.20;;;19.50;99.90;;;;;;5005923;28;20046;-74
2023/08/12 08:14:46;;;;;;;3.15;1.15;;;19.50;99.90;;;;;;5022625;28;20839;-75
2023/08/12 08:17:12;;;;;;;2.33;1.05;;;19.60;99.90;;;;;;5025115;28;20573;-74
2023/08/12 08:19:39;;;;;;;1.35;0.80;;;19.60;87.30;;;;;;5006892;28;20172;-74
2023/08/12 08:22:06;;;;;;;4.85;1.83;;;19.70;1.00;;;;;;5015530;28;20050;-74
2023/08/12 08:24:33;;;;;;;3.95;1.60;;;19.70;99.90;;;;;;5018688;28;20049;-74
2023/08/12 08:27:00;;;;;;;3.00;1.35;;;19.60;99.90;;;;;;5015859;28;20049;-74
2023/08/12 08:29:26;;;;;;;4.32;1.45;;;19.60;99.90;;;;;;5005864;28;20074;-74
2023/08/12 08:31:53;;;;;;;4.25;1.50;;;19.60;99.90;;;;;;5006496;28;20068;-75
2023/08/12 08:34:20;;;;;;;2.72;1.25;;;19.50;99.90;;;;;;5007124;28;20046;-75
2023/08/12 08:36:47;;;;;;;1.58;0.98;;;19.50;99.90;;;;;;5008607;28;20134;-74
2023/08/12 08:39:14;;;;;;;3.47;1.30;;;19.50;99.90;;;;;;5020283;28;20045;-74
2023/08/12 08:41:41;;;;;;;2.63;1.55;;;19.50;99.90;;;;;;5021447;28;20108;-74
2023/08/12 08:44:08;;;;;;;3.80;1.80;;;19.60;99.90;;;;;;5001484;28;20111;-75
2023/08/12 08:46:35;;;;;;;3.47;1.40;;;19.70;99.90;;;;;;5003023;28;20068;-75
2023/08/12 08:49:02;;;;;;;2.80;1.33;;;19.80;92.50;;;;;;5014230;28;20045;-75
2023/08/12 08:51:32;;;;;;;3.40;1.20;;;20.00;90.90;;;;;;5004277;28;20041;-75
2023/08/12 08:53:59;;;;;;;2.40;1.05;;;20.20;80.20;;;;;;5022297;28;20057;-75
2023/08/12 08:56:30;;;;;;;3.20;1.42;;;20.10;76.10;;;;;;4999226;28;20111;-75
2023/08/12 08:58:58;;;;;;;3.47;1.30;;;20.20;76.30;;;;;;5014309;28;20061;-75
2023/08/12 09:01:26;;;;;;;2.33;1.23;;;20.20;79.90;;;;;;4997070;28;20501;-74
2023/08/12 09:03:54;;;;;;;2.63;1.33;;;20.30;66.80;;;;;;4997823;28;20053;-75
2023/08/12 09:06:22;;;;;;;4.00;1.00;;;20.30;67.60;;;;;;4987132;28;20065;-75
2023/08/12 09:08:51;;;;;;;1.23;0.77;;;20.50;69.10;;;;;;5002907;28;20052;-74
2023/08/12 09:11:18;;;;;;;2.28;1.30;;;20.70;86.10;;;;;;5000641;28;20106;-74
2023/08/12 09:13:45;;;;;;;2.50;1.00;;;20.70;54.10;;;;;;5002484;28;20050;-74
2023/08/12 09:16:12;;;;;;;3.17;1.30;;;20.60;56.60;;;;;;5010661;28;20061;-75
2023/08/12 09:18:40;;;;;;;2.88;0.90;;;20.60;54.70;;;;;;5016324;28;20103;-74
2023/08/12 09:21:07;;;;;;;2.55;1.30;;;20.70;59.40;;;;;;5010542;28;20077;-74
2023/08/12 09:23:38;;;;;;;4.20;1.10;;;20.90;61.80;;;;;;5022069;28;20061;-74
2023/08/12 09:26:18;;;;;;;1.88;1.10;;;21.00;53.80;;;;;;5007716;28;20045;-74
2023/08/12 09:28:45;;;;;;;3.00;1.25;;;21.10;45.60;;;;;;5007811;28;20050;-75
2023/08/12 09:31:23;;;;;;;2.88;1.48;;;21.10;46.50;;;;;;5009237;28;20053;-75
2023/08/12 09:33:51;;;;;;;3.90;1.30;;;21.10;40.80;;;;;;5011943;28;20090;-74
2023/08/12 09:36:17;;;;;;;2.90;1.33;;;21.10;39.00;;;;;;5005120;28;20041;-74
2023/08/12 09:38:45;;;;;;;2.67;1.23;;;21.10;38.40;;;;;;5017805;28;20060;-74
2023/08/12 09:41:11;;;;;;;2.33;1.10;;;21.00;43.10;;;;;;4989569;28;20061;-75
2023/08/12 09:43:42;;;;;;;2.67;1.08;;;21.00;42.90;;;;;;4999056;28;20530;-74
2023/08/12 09:46:15;;;;;;;1.73;0.90;;;21.10;47.60;;;;;;5028598;28;20461;-75
2023/08/12 09:48:43;;;;;;;3.10;1.00;;;21.10;45.70;;;;;;5028018;28;20053;-75
2023/08/12 09:51:10;;;;;;;2.17;0.82;;;21.20;47.60;;;;;;5028292;28;20621;-75
2023/08/12 09:53:37;;;;;;;3.53;1.30;;;21.30;43.70;;;;;;5011155;28;20088;-74
2023/08/12 09:56:07;;;;;;;2.58;1.10;;;21.50;41.70;;;;;;5009110;28;20692;-75
2023/08/12 09:58:36;;;;;;;2.28;1.00;;;21.60;39.60;;;;;;5011259;28;20081;-75
2023/08/12 10:01:07;;;;;;;1.88;1.10;;;21.50;33.00;;;;;;5010814;28;20208;-75
2023/08/12 10:03:37;;;;;;;3.92;1.33;;;21.60;34.30;;;;;;4995977;28;20080;-75
2023/08/12 10:06:04;;;;;;;4.45;1.45;;;21.60;32.20;;;;;;5026096;28;20057;-74
2023/08/12 10:08:31;;;;;;;1.60;1.05;;;21.60;27.90;;;;;;4994896;28;20370;-75
2023/08/12 10:10:58;;;;;;;2.42;1.00;;;21.50;26.80;;;;;;5025310;28;20507;-74
2023/08/12 10:13:39;;;;;;;3.63;1.33;;;21.50;27.90;;;;;;4986980;28;20053;-75
2023/08/12 10:16:06;;;;;;;3.65;1.30;;;21.50;21.30;;;;;;5008202;28;20110;-75
2023/08/12 10:18:33;;;;;;;3.15;1.25;;;21.80;25.80;;;;;;5035011;28;20784;-75
2023/08/12 10:21:00;;;;;;;1.27;0.90;;;22.10;22.60;;;;;;5022312;28;20501;-74
2023/08/12 10:23:27;;;;;;;2.20;1.15;;;22.40;22.40;;;;;;5039625;28;20448;-75
2023/08/12 10:25:54;;;;;;;3.45;1.58;;;22.50;20.80;;;;;;5004106;28;20060;-75
2023/08/12 10:28:21;;;;;;;1.85;1.00;;;22.50;19.80;;;;;;4996693;28;20441;-75
2023/08/12 10:30:48;;;;;;;2.97;1.08;;;22.60;19.40;;;;;;5042532;28;20727;-74
2023/08/12 10:33:16;;;;;;;2.22;1.23;;;22.50;16.90;;;;;;5040613;28;20103;-75
2023/08/12 10:35:48;;;;;;;2.60;1.27;;;22.60;17.10;;;;;;5007237;28;20049;-75
2023/08/12 10:38:17;;;;;;;3.03;1.25;;;22.80;19.80;;;;;;5011687;28;20049;-75
2023/08/12 10:40:44;;;;;;;3.08;1.35;;;23.00;18.10;;;;;;5002341;28;20049;-74
2023/08/12 10:43:14;;;;;;;2.10;1.10;;;23.30;19.70;;;;;;5039832;28;20054;-75
2023/08/12 10:45:49;;;;;;;2.00;1.00;;;23.40;16.40;;;;;;4999395;28;20580;-74
2023/08/12 10:48:18;;;;;;;1.45;0.90;;;23.40;17.90;;;;;;5023168;28;20053;-74
2023/08/12 10:50:49;;;;;;;1.77;0.80;;;23.30;15.10;;;;;;5015594;28;20119;-74
2023/08/12 10:53:42;;;;;;;2.00;1.02;;;23.30;15.90;;;;;;5033870;28;20119;-75
2023/08/12 10:56:10;;;;;;;;;;;23.20;12.10;;;;;;5008380;28;20091;-74
2023/08/12 10:58:43;;;;;;;2.60;1.15;;;23.00;11.10;;;;;;5006037;28;19921;-75
2023/08/12 11:01:16;;;;;;;2.53;1.15;;;22.80;10.20;;;;;;5020440;28;20054;-75
2023/08/12 11:03:43;;;;;;;2.30;1.10;;;22.70;10.60;;;;;;5013343;28;20045;-75
2023/08/12 11:06:11;;;;;;;2.97;1.30;;;23.00;12.20;;;;;;5005597;28;20049;-75
2023/08/12 11:08:51;;;;;;;2.28;1.00;;;23.10;11.20;;;;;;5022516;28;20434;-75
2023/08/12 11:11:25;;;;;;;1.45;0.68;;;23.40;13.20;;;;;;5022475;28;20049;-75
2023/08/12 11:13:58;;;;;;;2.67;0.82;;;23.70;14.40;;;;;;5001904;28;20077;-75
2023/08/12 11:16:37;;;;;;;2.13;1.00;;;23.90;14.00;;;;;;4991872;28;20485;-74
2023/08/12 11:19:04;;;;;;;3.05;1.10;;;23.90;13.10;;;;;;5025058;28;20137;-75
2023/08/12 11:21:31;;;;;;;2.50;0.80;;;24.00;12.80;;;;;;5019913;28;20111;-75
2023/08/12 11:23:58;;;;;;;2.10;1.00;;;24.20;14.40;;;;;;5023561;28;20100;-75
2023/08/12 11:26:25;;;;;;;1.95;1.02;;;24.40;12.20;;;;;;4997207;28;20046;-75
2023/08/12 11:28:51;;;;;;;2.50;1.27;;;24.30;11.50;;;;;;5016460;28;20437;-74
2023/08/12 11:31:18;;;;;;;3.72;1.40;;;24.40;12.20;;;;;;5002996;28;20058;-75
2023/08/12 11:33:45;;;;;;;2.20;0.95;;;24.40;10.80;;;;;;5019449;28;20631;-74
2023/08/12 11:36:12;;;;;;;1.85;1.00;;;24.30;10.80;;;;;;5020641;28;20045;-75
2023/08/12 11:38:38;;;;;;;2.15;1.17;;;24.30;12.30;;;;;;5007748;28;20049;-75
2023/08/12 11:41:05;;;;;;;3.22;1.38;;;24.20;10.80;;;;;;5016255;28;20073;-75
2023/08/12 11:43:32;;;;;;;1.70;1.08;;;23.80;10.30;;;;;;5013340;28;20046;-74
2023/08/12 11:45:59;;;;;;;3.63;1.33;;;23.40;9.00;;;;;;5004760;28;20152;-75
2023/08/12 11:48:27;;;;;;;3.83;1.83;;;23.20;9.00;;;;;;5016491;28;20046;-74
2023/08/12 11:50:54;;;;;;;3.65;1.50;;;23.00;7.90;;;;;;5005741;28;20436;-74
2023/08/12 11:53:21;;;;;;;3.25;1.40;;;23.00;8.60;;;;;;5017021;28;20065;-75
2023/08/12 11:55:47;;;;;;;3.08;1.13;;;23.10;10.50;;;;;;5013661;28;20057;-75
2023/08/12 11:58:18;;;;;;;2.00;0.85;;;23.60;16.60;;;;;;4995925;28;20061;-74
2023/08/12 12:00:48;;;;;;;1.92;0.80;;;23.70;14.20;;;;;;5004813;28;20045;-75
2023/08/12 12:03:16;;;;;;;2.20;1.20;;;23.60;12.00;;;;;;4997151;28;20057;-74
2023/08/12 12:05:44;;;;;;;1.23;0.70;;;24.00;16.10;;;;;;5014948;28;20061;-74
2023/08/12 12:08:12;;;;;;;1.40;0.70;;;24.30;16.90;;;;;;4988308;28;20088;-75
2023/08/12 12:10:39;;;;;;;1.77;0.70;;;24.60;17.00;;;;;;5014382;28;20046;-75
2023/08/12 12:13:06;;;;;;;1.33;0.68;;;24.60;17.30;;;;;;4993375;28;20046;-75
2023/08/12 12:15:41;;;;;;;1.70;0.80;;;25.10;19.30;;;;;;5020850;28;20057;-75
2023/08/12 12:18:12;;;;;;;1.20;0.70;;;25.30;20.10;;;;;;5012090;28;20054;-75
2023/08/12 12:20:56;;;;;;;1.45;0.88;;;25.80;19.90;;;;;;5010990;28;20052;-75
2023/08/12 12:23:30;;;;;;;1.65;0.70;;;25.70;21.00;;;;;;4992757;28;20474;-75
2023/08/12 12:25:59;;;;;;;1.58;0.88;;;25.80;19.50;;;;;;5000312;28;20058;-75
2023/08/12 12:28:26;;;;;;;1.92;0.90;;;25.80;18.80;;;;;;5008874;28;20041;-75
2023/08/12 12:30:53;;;;;;;2.08;1.00;;;26.00;18.40;;;;;;4986689;28;20383;-75
2023/08/12 12:33:19;;;;;;;1.33;0.60;;;26.40;18.30;;;;;;5007939;28;20064;-75
2023/08/12 12:35:46;;;;;;;1.98;0.90;;;26.20;14.80;;;;;;5019816;28;20053;-75
2023/08/12 12:38:25;;;;;;;1.90;1.10;;;26.30;14.80;;;;;;5016427;28;20051;-75
2023/08/12 12:40:52;;;;;;;1.08;0.60;;;26.30;15.60;;;;;;5013986;28;20064;-75
2023/08/12 12:43:19;;;;;;;1.20;1.08;;;26.60;25.10;;;;;;5006585;28;20104;-75
2023/08/12 12:45:46;;;;;;;1.50;0.98;;;26.60;15.00;;;;;;4978846;28;21086;-75
2023/08/12 12:48:12;;;;;;;1.55;0.93;;;26.60;13.40;;;;;;5002544;28;20149;-75
2023/08/12 12:50:39;;;;;;;1.52;0.68;;;26.10;11.40;;;;;;5008305;28;20052;-74